createdAt,value
2022-12-03T00:02:33.985Z,-9.93
2022-12-03T00:12:37.193Z,-9.93
2022-12-03T00:22:41.570Z,-9.95
2022-12-03T00:32:44.557Z,-9.96
2022-12-03T00:42:48.964Z,-9.96
2022-12-03T00:52:51.929Z,-9.96
2022-12-03T01:02:56.489Z,-9.97
2022-12-03T01:12:59.413Z,-9.98
2022-12-03T01:23:03.798Z,-9.98
2022-12-03T01:33:06.741Z,-9.99
2022-12-03T01:43:11.359Z,-10.02
2022-12-03T01:53:18.689Z,-10.03
2022-12-03T02:03:24.850Z,-10.06
2022-12-03T02:13:28.462Z,-10.08
2022-12-03T02:23:37.151Z,-10.09
2022-12-03T02:33:41.767Z,-10.10
2022-12-03T02:43:44.785Z,-10.17
2022-12-03T02:53:52.407Z,-10.20
2022-12-03T03:03:55.517Z,-10.23
2022-12-03T03:14:01.816Z,-10.27
2022-12-03T03:24:06.004Z,-10.33
2022-12-03T03:34:11.051Z,-10.36
2022-12-03T03:44:14.500Z,-10.41
2022-12-03T03:54:19.169Z,-10.45
2022-12-03T04:04:24.968Z,-10.51
2022-12-03T04:14:29.505Z,-10.56
2022-12-03T04:24:32.382Z,-10.61
2022-12-03T04:34:57.625Z,-10.67
2022-12-03T04:45:00.632Z,-10.76
2022-12-03T04:55:05.676Z,-10.81
2022-12-03T05:05:11.232Z,-10.87
2022-12-03T05:15:15.730Z,-10.92
2022-12-03T05:25:18.622Z,-10.97
2022-12-03T05:35:22.831Z,-11.01
2022-12-03T05:45:27.268Z,-11.04
2022-12-03T05:55:31.622Z,-11.12
2022-12-03T06:05:37.968Z,-11.14
2022-12-03T06:15:45.178Z,-11.16
2022-12-03T06:25:48.342Z,-11.17
2022-12-03T06:35:52.693Z,-11.18
2022-12-03T06:45:55.718Z,-11.17
2022-12-03T06:56:00.147Z,-11.16
2022-12-03T07:06:02.988Z,-11.15
2022-12-03T07:16:08.248Z,-11.13
2022-12-03T07:26:11.661Z,-11.11
2022-12-03T07:36:16.367Z,-11.07
2022-12-03T07:46:20.946Z,-11.02
2022-12-03T07:56:25.244Z,-10.98
2022-12-03T08:06:28.246Z,-10.93
2022-12-03T08:16:32.964Z,-10.88
2022-12-03T08:26:36.437Z,-10.83
2022-12-03T08:36:40.963Z,-10.79
2022-12-03T08:46:43.730Z,-10.75
2022-12-03T08:56:48.062Z,-10.71
2022-12-03T09:06:51.071Z,-10.68
2022-12-03T09:16:56.384Z,-10.68
2022-12-03T09:26:59.463Z,-10.66
2022-12-03T09:37:03.814Z,-10.66
2022-12-03T09:47:07.415Z,-10.65
2022-12-03T09:57:15.562Z,-10.63
2022-12-03T10:07:18.574Z,-10.60
2022-12-03T10:17:23.127Z,-10.57
2022-12-03T10:27:31.079Z,-10.57
2022-12-03T10:37:35.425Z,-10.55
2022-12-03T10:47:38.304Z,-10.54
2022-12-03T10:57:45.919Z,-10.53
2022-12-03T11:07:49.594Z,-10.52
2022-12-03T11:53:31.650Z,-10.58
2022-12-03T12:03:38.102Z,-10.62
2022-12-03T12:13:54.923Z,-10.69
2022-12-03T12:23:58.056Z,-10.73
2022-12-03T12:34:02.727Z,-10.81
2022-12-03T12:44:09.993Z,-10.89
2022-12-03T12:54:17.515Z,-10.94
2022-12-03T13:04:23.178Z,-11.01
2022-12-03T13:14:36.921Z,-11.04
2022-12-03T13:24:45.120Z,-11.07
2022-12-03T13:34:55.592Z,-11.10
2022-12-03T13:44:58.819Z,-11.14
2022-12-03T13:55:04.497Z,-11.18
2022-12-03T14:05:08.402Z,-11.25
2022-12-03T14:15:13.008Z,-11.27
2022-12-03T14:25:16.082Z,-11.29
2022-12-03T14:35:23.601Z,-11.33
2022-12-03T14:45:28.921Z,-11.34
2022-12-03T14:55:33.835Z,-11.36
2022-12-03T15:05:37.098Z,-11.37
2022-12-03T15:15:41.694Z,-11.37
2022-12-03T15:25:44.787Z,-11.36
2022-12-03T15:35:49.142Z,-11.39
2022-12-03T15:45:52.395Z,-11.41
2022-12-03T15:55:56.734Z,-11.41
2022-12-03T16:05:59.870Z,-11.40
2022-12-03T16:16:04.530Z,-11.41
2022-12-03T16:26:09.038Z,-11.41
2022-12-03T16:36:13.520Z,-11.46
2022-12-03T16:46:19.357Z,-11.47
2022-12-03T16:56:23.899Z,-11.52
2022-12-03T17:06:27.745Z,-11.60
2022-12-03T17:16:32.279Z,-11.73
2022-12-03T17:26:35.611Z,-11.85
2022-12-03T17:36:40.511Z,-11.95
2022-12-03T17:46:43.901Z,-12.04
2022-12-03T17:56:49.882Z,-12.15
2022-12-03T18:06:56.146Z,-12.24
2022-12-03T18:17:03.230Z,-12.31
2022-12-03T18:27:08.735Z,-12.40
2022-12-03T18:37:17.775Z,-12.50
2022-12-03T18:47:22.778Z,-12.60
2022-12-03T18:57:27.599Z,-12.73
2022-12-03T19:07:30.674Z,-12.83
2022-12-03T19:17:35.024Z,-12.94
2022-12-03T19:27:37.957Z,-13.03
2022-12-03T19:37:42.477Z,-13.17
2022-12-03T19:47:45.576Z,-13.29
2022-12-03T19:57:49.975Z,-13.40
2022-12-03T20:07:52.876Z,-13.50
2022-12-03T20:17:57.418Z,-13.60
2022-12-03T20:28:08.405Z,-13.69
2022-12-03T20:38:12.834Z,-13.84
2022-12-03T20:48:18.036Z,-13.92
2022-12-03T20:58:22.517Z,-13.99
2022-12-03T21:18:46.022Z,-14.13
2022-12-03T21:28:51.574Z,-14.21
2022-12-03T21:38:56.118Z,-14.28
2022-12-03T21:49:00.240Z,-14.36
2022-12-03T21:59:04.798Z,-14.44
2022-12-03T22:09:07.626Z,-14.52
2022-12-03T22:19:11.875Z,-14.59
2022-12-03T22:29:15.229Z,-14.66
2022-12-03T22:39:20.400Z,-14.73
2022-12-03T22:49:23.455Z,-14.81
2022-12-03T22:59:27.882Z,-14.87
2022-12-03T23:09:31.039Z,-14.93
2022-12-03T23:19:35.942Z,-15.01
2022-12-03T23:29:39.033Z,-15.06
2022-12-03T23:39:43.503Z,-15.10
2022-12-03T23:49:46.482Z,-15.17
2022-12-03T23:59:51.427Z,-15.20
